Terminal Aerodrome Forecast
Issued by NWS

Home | Current Version | Previous Version | Text Only | Print | Product List | Glossary On
Versions: 1 2 3 4 5 6 7 8 9 10 11 12 13 14 15 16 17
000
FTUS46 KMTR 282300 RRA
TAFMRY
TAF
KMRY 282344Z 2900/2924 29008KT P6SM SCT200
     FM290200 24005KT P6SM SCT008
     FM290400 24004KT P6SM OVC007
     FM291800 28005KT P6SM SCT010
     FM292000 28010KT P6SM SKC=

USA.gov is the U.S. government's official web portal to all federal, state and local government web resources and services.